createdAt,value
2022-10-03T00:00:32.323Z,60.29
2022-10-03T00:01:32.511Z,59.28
2022-10-03T00:02:32.364Z,42.43
2022-10-03T00:03:32.298Z,65.06
2022-10-03T00:04:32.320Z,59.03
2022-10-03T00:05:32.336Z,57.84
2022-10-03T00:06:32.261Z,55.12
2022-10-03T00:07:32.324Z,62.04
2022-10-03T00:08:32.188Z,46.40
2022-10-03T00:09:32.206Z,59.93
2022-10-03T00:10:32.216Z,49.32
2022-10-03T00:11:32.238Z,56.99
2022-10-03T00:12:32.232Z,51.91
2022-10-03T00:13:32.156Z,57.94
2022-10-03T00:14:32.254Z,55.95
2022-10-03T00:15:32.173Z,50.56
2022-10-03T00:16:32.246Z,56.21
2022-10-03T00:17:32.150Z,49.16
2022-10-03T00:18:32.108Z,68.00
2022-10-03T00:19:32.212Z,63.62
2022-10-03T00:20:32.184Z,62.14
2022-10-03T00:21:32.157Z,54.76
2022-10-03T00:22:32.071Z,66.60
2022-10-03T00:23:32.064Z,58.89
2022-10-03T00:24:32.649Z,55.15
2022-10-03T00:25:32.200Z,57.05
2022-10-03T00:26:32.025Z,42.75
2022-10-03T00:27:32.053Z,41.00
2022-10-03T00:28:32.003Z,54.45
2022-10-03T00:29:32.601Z,60.77
2022-10-03T00:30:31.997Z,43.37
2022-10-03T00:31:32.005Z,61.00
2022-10-03T00:32:31.977Z,41.14
2022-10-03T00:33:32.012Z,54.31
2022-10-03T00:34:32.012Z,62.64
2022-10-03T00:35:31.946Z,52.83
2022-10-03T00:36:31.985Z,58.64
2022-10-03T00:37:31.933Z,49.58
2022-10-03T00:38:31.946Z,55.06
2022-10-03T00:39:31.930Z,56.23
2022-10-03T00:40:31.937Z,56.57
2022-10-03T00:41:31.878Z,60.96
2022-10-03T00:42:31.934Z,45.97
2022-10-03T00:43:31.925Z,63.76
2022-10-03T00:44:31.847Z,56.13
2022-10-03T00:45:31.794Z,58.63
2022-10-03T00:46:31.955Z,47.06
2022-10-03T00:47:31.839Z,50.28
2022-10-03T00:48:31.797Z,59.50
2022-10-03T00:49:31.802Z,54.38
2022-10-03T00:50:31.801Z,56.27
2022-10-03T00:51:32.641Z,54.06
2022-10-03T00:52:31.794Z,47.74
2022-10-03T00:53:31.811Z,58.70
2022-10-03T00:54:31.717Z,60.79
2022-10-03T00:55:31.715Z,57.01
2022-10-03T00:56:31.734Z,60.47
2022-10-03T00:57:31.774Z,43.77
2022-10-03T00:58:31.703Z,51.89
2022-10-03T00:59:31.786Z,59.27
2022-10-03T01:00:31.671Z,52.77
2022-10-03T01:01:31.738Z,59.35
2022-10-03T01:02:31.689Z,51.19
2022-10-03T01:03:31.623Z,49.65
2022-10-03T01:04:31.648Z,47.44
2022-10-03T01:05:31.603Z,52.65
2022-10-03T01:06:31.643Z,64.54
2022-10-03T01:07:31.599Z,49.93
2022-10-03T01:08:32.534Z,58.63
2022-10-03T01:09:31.622Z,64.65
2022-10-03T01:10:31.603Z,57.88
2022-10-03T01:11:31.545Z,63.69
2022-10-03T01:12:31.575Z,65.82
2022-10-03T01:13:31.667Z,57.60
2022-10-03T01:14:31.569Z,56.96
2022-10-03T01:16:04.052Z,49.05
2022-10-03T01:16:31.617Z,49.51
2022-10-03T01:17:31.526Z,50.04
2022-10-03T01:18:31.470Z,68.55
2022-10-03T01:19:31.455Z,61.26
2022-10-03T01:20:32.175Z,47.78
2022-10-03T01:21:31.479Z,54.12
2022-10-03T01:22:31.447Z,54.04
2022-10-03T01:23:31.419Z,57.29
2022-10-03T01:24:31.404Z,61.66
2022-10-03T01:25:31.380Z,55.24
2022-10-03T01:26:31.376Z,63.82
2022-10-03T01:27:31.370Z,55.75
2022-10-03T01:28:31.501Z,64.21
2022-10-03T01:29:31.426Z,55.17
2022-10-03T01:30:31.327Z,53.91
2022-10-03T01:31:31.399Z,56.28
2022-10-03T01:32:31.316Z,55.57
2022-10-03T01:33:31.344Z,46.15
2022-10-03T01:34:31.318Z,54.59
2022-10-03T01:35:31.315Z,55.62
2022-10-03T01:36:31.284Z,47.27
2022-10-03T01:37:31.269Z,50.16
2022-10-03T01:38:31.272Z,52.49
2022-10-03T01:39:31.240Z,46.09
2022-10-03T01:40:31.224Z,62.08
2022-10-03T01:41:31.208Z,54.55
2022-10-03T01:42:31.197Z,59.93
2022-10-03T01:43:31.214Z,64.86
2022-10-03T01:44:31.192Z,45.64
2022-10-03T01:45:31.204Z,50.87
2022-10-03T01:46:31.206Z,61.42
2022-10-03T01:47:31.328Z,53.52
2022-10-03T01:48:31.145Z,46.81
2022-10-03T01:49:31.178Z,57.83
2022-10-03T01:50:31.104Z,59.27
2022-10-03T01:51:31.125Z,57.84
2022-10-03T01:52:31.078Z,51.61
2022-10-03T01:53:31.100Z,54.46
2022-10-03T01:54:31.085Z,60.64
2022-10-03T01:55:31.064Z,58.24
2022-10-03T01:56:31.057Z,62.71
2022-10-03T01:57:31.058Z,45.89
2022-10-03T01:58:31.041Z,44.26
2022-10-03T01:59:30.998Z,52.75
2022-10-03T02:00:31.045Z,46.23
2022-10-03T02:01:31.005Z,43.32
2022-10-03T02:02:30.971Z,57.37
2022-10-03T02:03:30.961Z,54.47
2022-10-03T02:04:30.966Z,51.82
2022-10-03T02:05:30.996Z,49.86
2022-10-03T02:06:31.067Z,46.66
2022-10-03T02:07:30.926Z,62.41
2022-10-03T02:08:30.900Z,50.70
2022-10-03T02:09:30.933Z,59.54
2022-10-03T02:10:30.878Z,60.01
2022-10-03T02:11:31.667Z,54.25
2022-10-03T02:12:30.869Z,68.90
2022-10-03T02:13:31.095Z,63.59
2022-10-03T02:14:30.854Z,58.39
2022-10-03T02:15:30.863Z,58.32
2022-10-03T02:16:30.885Z,58.78
2022-10-03T02:17:30.870Z,51.23
2022-10-03T02:18:30.882Z,62.11
2022-10-03T02:19:30.791Z,59.20
2022-10-03T02:20:31.827Z,42.59
2022-10-03T02:21:31.663Z,50.87
2022-10-03T02:22:30.873Z,46.85
2022-10-03T02:23:30.794Z,64.71
2022-10-03T02:24:30.772Z,50.90
2022-10-03T02:25:30.707Z,43.48
2022-10-03T02:26:30.751Z,45.34
2022-10-03T02:27:30.694Z,42.53
2022-10-03T02:28:30.757Z,52.87
2022-10-03T02:29:30.702Z,54.69
2022-10-03T02:30:30.662Z,52.30
2022-10-03T02:31:30.659Z,51.14
2022-10-03T02:32:30.636Z,60.19
2022-10-03T02:33:30.676Z,57.44
2022-10-03T02:34:30.613Z,57.51
2022-10-03T02:35:30.591Z,49.42
2022-10-03T02:36:30.607Z,46.05
2022-10-03T02:37:30.607Z,45.45
2022-10-03T02:38:30.600Z,54.61
2022-10-03T02:39:30.596Z,49.35
2022-10-03T02:40:30.591Z,58.64
2022-10-03T02:41:30.624Z,59.17
2022-10-03T02:42:30.548Z,56.56
2022-10-03T02:43:30.556Z,62.13
2022-10-03T02:44:30.519Z,55.81
2022-10-03T02:45:30.558Z,54.11
2022-10-03T02:46:30.533Z,54.46
2022-10-03T02:47:30.492Z,60.16
2022-10-03T02:48:32.092Z,55.02
2022-10-03T02:49:31.468Z,60.61
2022-10-03T02:50:30.439Z,50.43
2022-10-03T02:51:30.443Z,59.81
2022-10-03T02:52:30.471Z,56.48
2022-10-03T02:53:30.464Z,49.61
2022-10-03T02:54:30.412Z,50.30
2022-10-03T02:55:30.413Z,62.89
2022-10-03T02:56:30.377Z,62.89
2022-10-03T02:57:30.466Z,58.36
2022-10-03T02:58:30.365Z,49.11
2022-10-03T02:59:30.376Z,58.79
2022-10-03T03:00:30.413Z,59.33
2022-10-03T03:01:30.352Z,60.74
2022-10-03T03:02:30.392Z,55.14
2022-10-03T03:03:30.326Z,60.76
2022-10-03T03:04:30.391Z,53.26
2022-10-03T03:05:30.281Z,50.77
2022-10-03T03:06:30.261Z,61.40
2022-10-03T03:07:30.286Z,63.80
2022-10-03T03:08:30.274Z,56.19
2022-10-03T03:09:30.265Z,62.75
2022-10-03T03:10:30.270Z,56.64
2022-10-03T03:11:30.240Z,61.00
2022-10-03T03:12:30.213Z,61.95
2022-10-03T03:13:30.209Z,64.72
2022-10-03T03:14:30.190Z,59.83
2022-10-03T03:15:30.237Z,63.53
2022-10-03T03:16:30.333Z,61.13
2022-10-03T03:17:30.157Z,63.60
2022-10-03T03:18:30.222Z,66.98
2022-10-03T03:19:30.130Z,55.83
2022-10-03T03:20:30.126Z,61.19
2022-10-03T03:21:30.137Z,64.36
2022-10-03T03:22:30.126Z,66.47
2022-10-03T03:23:30.099Z,64.13
2022-10-03T03:24:30.106Z,64.26
2022-10-03T03:25:30.079Z,62.64
2022-10-03T03:26:30.158Z,67.62
2022-10-03T03:27:30.038Z,55.67
2022-10-03T03:28:30.648Z,63.66
2022-10-03T03:29:30.025Z,63.22
2022-10-03T03:30:30.043Z,65.29
2022-10-03T03:31:30.126Z,65.57
2022-10-03T03:32:29.997Z,67.14
2022-10-03T03:33:29.999Z,63.40
2022-10-03T03:34:29.998Z,67.86
2022-10-03T03:35:29.949Z,64.45
2022-10-03T03:36:29.954Z,68.09
2022-10-03T03:37:29.954Z,66.74
2022-10-03T03:38:29.949Z,62.40
2022-10-03T03:39:29.933Z,58.71
2022-10-03T03:40:29.935Z,65.23
2022-10-03T03:41:30.660Z,63.53
2022-10-03T03:42:29.906Z,63.44
2022-10-03T03:43:29.922Z,64.83
2022-10-03T03:44:30.601Z,65.35
2022-10-03T03:45:29.970Z,63.96
2022-10-03T03:46:29.894Z,65.58
2022-10-03T03:47:29.856Z,61.64
2022-10-03T03:48:29.833Z,65.64
2022-10-03T03:49:29.827Z,63.11
2022-10-03T03:50:29.835Z,66.08
2022-10-03T03:51:29.786Z,60.85
2022-10-03T03:52:29.784Z,66.57
2022-10-03T03:53:29.766Z,64.42
2022-10-03T03:54:29.777Z,66.25
2022-10-03T03:55:29.742Z,64.61
2022-10-03T03:56:29.727Z,63.74
2022-10-03T03:57:29.709Z,66.20
2022-10-03T03:58:29.727Z,65.07
2022-10-03T03:59:29.692Z,64.76
2022-10-03T04:00:29.705Z,66.41
2022-10-03T04:01:29.727Z,64.82
2022-10-03T04:02:29.724Z,64.97
2022-10-03T04:03:29.666Z,66.39
2022-10-03T04:04:29.656Z,66.83
2022-10-03T04:05:29.696Z,64.13
2022-10-03T04:06:29.615Z,60.20
2022-10-03T04:07:29.603Z,64.90
2022-10-03T04:08:29.605Z,66.14
2022-10-03T04:09:29.587Z,65.40
2022-10-03T04:10:29.582Z,68.48
2022-10-03T04:11:29.739Z,63.02
2022-10-03T04:12:29.560Z,66.14
2022-10-03T04:13:29.552Z,64.26
2022-10-03T04:14:29.535Z,66.54
2022-10-03T04:15:29.548Z,64.97
2022-10-03T04:16:29.616Z,67.34
2022-10-03T04:17:29.538Z,67.28
2022-10-03T04:18:29.530Z,66.55
2022-10-03T04:19:29.500Z,64.99
2022-10-03T04:20:29.529Z,62.36
2022-10-03T04:21:29.495Z,57.55
2022-10-03T04:22:29.493Z,67.43
2022-10-03T04:23:29.462Z,66.26
2022-10-03T04:24:29.440Z,59.25
2022-10-03T04:25:29.437Z,52.02
2022-10-03T04:26:29.432Z,62.44
2022-10-03T04:27:29.432Z,59.51
2022-10-03T04:28:29.429Z,61.94
2022-10-03T04:29:29.389Z,54.18
2022-10-03T04:30:29.422Z,66.04
2022-10-03T04:31:29.468Z,64.44
2022-10-03T04:32:29.414Z,69.75
2022-10-03T04:33:29.333Z,68.01
2022-10-03T04:34:29.380Z,66.16
2022-10-03T04:35:29.422Z,64.81
2022-10-03T04:36:29.323Z,63.46
2022-10-03T04:37:29.329Z,63.71
2022-10-03T04:38:29.318Z,69.08
2022-10-03T04:39:29.289Z,65.51
2022-10-03T04:40:29.289Z,65.60
2022-10-03T04:41:29.271Z,69.43
2022-10-03T04:42:29.258Z,59.70
2022-10-03T04:43:29.285Z,66.93
2022-10-03T04:44:29.276Z,57.81
2022-10-03T04:45:29.345Z,62.77
2022-10-03T04:46:29.222Z,65.23
2022-10-03T04:47:29.214Z,64.62
2022-10-03T04:48:29.208Z,62.33
2022-10-03T04:49:29.209Z,67.28
2022-10-03T04:50:29.197Z,60.40
2022-10-03T04:51:29.150Z,64.85
2022-10-03T04:52:29.162Z,68.01
2022-10-03T04:53:29.182Z,62.79
2022-10-03T04:54:29.113Z,70.32
2022-10-03T04:55:29.142Z,62.85
2022-10-03T04:56:29.129Z,57.99
2022-10-03T04:57:29.106Z,60.51
2022-10-03T04:58:29.106Z,62.66
2022-10-03T04:59:29.054Z,61.78
2022-10-03T05:00:29.067Z,67.18
2022-10-03T05:01:29.137Z,67.76
2022-10-03T05:02:29.079Z,57.27
2022-10-03T05:03:29.011Z,63.64
2022-10-03T05:04:29.006Z,64.49
2022-10-03T05:05:29.011Z,61.61
2022-10-03T05:06:29.010Z,55.67
2022-10-03T05:07:28.963Z,64.50
2022-10-03T05:08:29.978Z,66.01
2022-10-03T05:09:29.051Z,64.26
2022-10-03T05:10:28.962Z,61.25
2022-10-03T05:11:29.163Z,68.70
2022-10-03T05:12:28.947Z,56.50
2022-10-03T05:13:28.934Z,59.52
2022-10-03T05:14:28.906Z,66.62
2022-10-03T05:15:28.874Z,66.82
2022-10-03T05:16:28.943Z,58.37
2022-10-03T05:17:28.871Z,63.91
2022-10-03T05:18:28.942Z,66.45
2022-10-03T05:19:28.867Z,55.20
2022-10-03T05:20:28.880Z,61.92
2022-10-03T05:21:28.827Z,55.48
2022-10-03T05:22:28.830Z,65.16
2022-10-03T05:23:28.879Z,63.14
2022-10-03T05:24:28.774Z,63.38
2022-10-03T05:25:28.780Z,57.07
2022-10-03T05:26:45.670Z,64.82
2022-10-03T05:27:30.743Z,63.12
2022-10-03T05:28:28.822Z,63.63
2022-10-03T05:29:28.743Z,67.96
2022-10-03T05:30:28.751Z,61.97
2022-10-03T05:31:28.775Z,63.31
2022-10-03T05:32:29.699Z,59.99
2022-10-03T05:33:28.709Z,52.57
2022-10-03T05:34:28.677Z,65.63
2022-10-03T05:35:28.693Z,69.60
2022-10-03T05:36:28.799Z,63.02
2022-10-03T05:37:28.640Z,67.30
2022-10-03T05:38:28.670Z,63.09
2022-10-03T05:39:28.647Z,70.33
2022-10-03T05:40:28.616Z,62.45
2022-10-03T05:41:28.660Z,66.45
2022-10-03T05:42:28.592Z,66.63
2022-10-03T05:43:28.648Z,59.58
2022-10-03T05:44:28.596Z,64.94
2022-10-03T05:45:28.672Z,66.52
2022-10-03T05:46:28.554Z,59.47
2022-10-03T05:47:28.568Z,66.99
2022-10-03T05:48:28.598Z,67.11
2022-10-03T05:49:28.559Z,68.92
2022-10-03T05:50:28.552Z,56.42
2022-10-03T05:51:28.517Z,54.44
2022-10-03T05:52:28.512Z,67.57
2022-10-03T05:53:28.508Z,66.86
2022-10-03T05:54:28.483Z,65.79
2022-10-03T05:55:28.468Z,67.43
2022-10-03T05:56:28.512Z,65.88
2022-10-03T05:57:28.456Z,66.19
2022-10-03T05:58:28.427Z,63.15
2022-10-03T05:59:28.425Z,69.29
2022-10-03T06:00:28.488Z,59.92
2022-10-03T06:01:28.441Z,60.39
2022-10-03T06:02:28.558Z,63.60
2022-10-03T06:03:28.424Z,70.34
2022-10-03T06:04:28.358Z,66.15
2022-10-03T06:05:28.640Z,67.31
2022-10-03T06:06:28.348Z,67.48
2022-10-03T06:07:28.362Z,68.41
2022-10-03T06:08:28.325Z,56.80
2022-10-03T06:09:28.341Z,67.83
2022-10-03T06:10:28.425Z,64.22
2022-10-03T06:11:28.333Z,64.92
2022-10-03T06:12:28.262Z,69.64
2022-10-03T06:13:28.293Z,65.79
2022-10-03T06:14:28.290Z,63.12
2022-10-03T06:15:28.245Z,68.13
2022-10-03T06:16:28.311Z,65.78
2022-10-03T06:17:28.227Z,63.44
2022-10-03T06:18:28.341Z,63.80
2022-10-03T06:19:28.346Z,67.19
2022-10-03T06:20:28.198Z,65.76
2022-10-03T06:21:28.253Z,60.92
2022-10-03T06:22:28.197Z,62.89
2022-10-03T06:23:28.201Z,67.37
2022-10-03T06:24:28.189Z,65.24
2022-10-03T06:25:28.148Z,64.88
2022-10-03T06:26:28.183Z,67.22
2022-10-03T06:27:28.103Z,54.88
2022-10-03T06:28:28.165Z,61.05
2022-10-03T06:29:28.102Z,65.42
2022-10-03T06:30:28.103Z,64.96
2022-10-03T06:31:31.814Z,64.17
2022-10-03T06:32:29.646Z,72.00
2022-10-03T06:33:28.056Z,62.50
2022-10-03T06:34:28.050Z,68.39
2022-10-03T06:35:28.008Z,60.22
2022-10-03T06:36:28.067Z,64.25
2022-10-03T06:37:28.015Z,69.81
2022-10-03T06:38:28.023Z,68.30
2022-10-03T06:39:28.021Z,65.27
2022-10-03T06:40:28.086Z,62.85
2022-10-03T06:41:27.980Z,67.78
2022-10-03T06:42:27.982Z,68.49
2022-10-03T06:43:28.008Z,66.43
2022-10-03T06:44:28.044Z,64.37
2022-10-03T06:45:30.987Z,64.80
2022-10-03T06:46:28.951Z,68.95
2022-10-03T06:47:27.939Z,65.75
2022-10-03T06:48:27.983Z,68.99
2022-10-03T06:49:27.919Z,60.13
2022-10-03T06:50:27.873Z,65.82
2022-10-03T06:51:30.746Z,67.74
2022-10-03T06:52:28.872Z,64.34
2022-10-03T06:53:27.876Z,68.61
2022-10-03T06:54:27.824Z,67.41
2022-10-03T06:55:27.804Z,68.69
2022-10-03T06:56:27.791Z,70.02
2022-10-03T06:57:27.775Z,63.88
2022-10-03T06:58:27.783Z,65.05
2022-10-03T06:59:27.779Z,68.14
2022-10-03T07:00:27.797Z,66.32
2022-10-03T07:01:27.829Z,66.41
2022-10-03T07:02:27.752Z,67.48
2022-10-03T07:03:27.769Z,66.76
2022-10-03T07:04:27.729Z,70.81
2022-10-03T07:05:27.709Z,67.03
2022-10-03T07:06:27.702Z,69.39
2022-10-03T07:07:27.675Z,67.89
2022-10-03T07:08:27.684Z,69.71
2022-10-03T07:09:27.683Z,67.54
2022-10-03T07:10:27.698Z,69.17
2022-10-03T07:11:27.660Z,66.45
2022-10-03T07:12:27.661Z,70.24
2022-10-03T07:13:27.648Z,68.76
2022-10-03T07:14:27.590Z,69.39
2022-10-03T07:15:50.216Z,68.66
2022-10-03T07:16:29.690Z,67.68
2022-10-03T07:17:27.709Z,69.24
2022-10-03T07:18:27.655Z,68.95
2022-10-03T07:19:27.557Z,69.17
2022-10-03T07:20:28.134Z,69.46
2022-10-03T07:21:27.565Z,67.03
2022-10-03T07:22:27.521Z,69.03
2022-10-03T07:23:27.515Z,66.44
2022-10-03T07:24:27.553Z,67.60
2022-10-03T07:25:27.514Z,67.20
2022-10-03T07:26:27.497Z,69.53
2022-10-03T07:27:27.493Z,71.43
2022-10-03T07:28:27.492Z,68.65
2022-10-03T07:29:27.409Z,68.94
2022-10-03T07:30:27.445Z,69.43
2022-10-03T07:31:27.464Z,70.45
2022-10-03T07:32:27.406Z,69.91
2022-10-03T07:33:27.393Z,70.60
2022-10-03T07:34:27.425Z,65.90
2022-10-03T07:35:27.379Z,71.20
2022-10-03T07:36:27.353Z,68.69
2022-10-03T07:37:27.346Z,69.64
2022-10-03T07:38:28.270Z,68.99
2022-10-03T07:39:27.378Z,69.46
2022-10-03T07:40:27.318Z,68.90
2022-10-03T07:41:27.439Z,69.23
2022-10-03T07:42:27.306Z,70.40
2022-10-03T07:43:27.313Z,71.23
2022-10-03T07:44:27.354Z,66.65
2022-10-03T07:45:27.274Z,66.86
2022-10-03T07:46:27.320Z,68.91
2022-10-03T07:47:27.279Z,71.10
2022-10-03T07:48:27.286Z,67.99
2022-10-03T07:49:28.126Z,69.68
2022-10-03T07:50:27.203Z,68.91
2022-10-03T07:51:27.219Z,69.49
2022-10-03T07:52:27.198Z,68.50
2022-10-03T07:53:27.212Z,69.85
2022-10-03T07:54:27.192Z,69.82
2022-10-03T07:55:27.203Z,66.80
2022-10-03T07:56:27.157Z,66.16
2022-10-03T07:57:27.162Z,64.56
2022-10-03T07:58:27.122Z,69.79
2022-10-03T07:59:27.119Z,67.42
2022-10-03T08:00:27.139Z,66.30
2022-10-03T08:01:27.101Z,68.10
2022-10-03T08:02:27.206Z,66.76
2022-10-03T08:03:27.074Z,68.64
2022-10-03T08:04:27.054Z,64.78
2022-10-03T08:05:27.037Z,68.72
2022-10-03T08:06:27.134Z,65.47
2022-10-03T08:07:27.036Z,66.80
2022-10-03T08:08:26.996Z,65.28
2022-10-03T08:09:27.060Z,64.16
2022-10-03T08:10:27.013Z,69.27
2022-10-03T08:11:27.001Z,69.65
2022-10-03T08:12:26.977Z,68.70
2022-10-03T08:13:26.977Z,69.13
2022-10-03T08:14:26.953Z,72.42
2022-10-03T08:15:26.945Z,69.68
2022-10-03T08:16:26.962Z,70.56
2022-10-03T08:17:26.997Z,70.46
2022-10-03T08:18:26.935Z,67.98
2022-10-03T08:19:26.909Z,70.47
2022-10-03T08:20:26.983Z,70.47
2022-10-03T08:21:26.913Z,71.37
2022-10-03T08:22:26.850Z,66.81
2022-10-03T08:23:26.839Z,69.46
2022-10-03T08:24:26.854Z,69.00
2022-10-03T08:25:26.823Z,71.96
2022-10-03T08:26:26.842Z,70.33
2022-10-03T08:27:26.810Z,69.90
2022-10-03T08:28:26.843Z,68.92
2022-10-03T08:29:26.806Z,67.90
2022-10-03T08:30:26.752Z,68.27
2022-10-03T08:31:26.880Z,67.45
2022-10-03T08:32:26.755Z,69.74
2022-10-03T08:33:26.750Z,68.12
2022-10-03T08:34:26.797Z,68.83
2022-10-03T08:35:26.719Z,70.92
2022-10-03T08:36:26.736Z,67.39
2022-10-03T08:37:26.728Z,70.50
2022-10-03T08:38:28.188Z,70.59
2022-10-03T08:39:27.649Z,71.07
2022-10-03T08:40:26.708Z,68.93
2022-10-03T08:41:26.644Z,68.50
2022-10-03T08:42:26.710Z,69.14
2022-10-03T08:43:26.674Z,66.76
2022-10-03T08:44:30.328Z,67.96
2022-10-03T08:45:27.645Z,70.43
2022-10-03T08:46:26.653Z,70.63
2022-10-03T08:47:26.585Z,71.29
2022-10-03T08:48:26.552Z,68.50
2022-10-03T08:49:26.564Z,68.67
2022-10-03T08:50:26.580Z,69.96
2022-10-03T08:51:26.564Z,69.74
2022-10-03T08:52:26.532Z,67.93
2022-10-03T08:53:26.537Z,70.55
2022-10-03T08:54:27.531Z,68.97
2022-10-03T08:55:26.573Z,69.63
2022-10-03T08:56:26.500Z,69.52
2022-10-03T08:57:26.524Z,69.28
2022-10-03T08:58:26.473Z,70.01
2022-10-03T08:59:26.466Z,68.98
2022-10-03T09:00:26.433Z,69.32
2022-10-03T09:01:26.499Z,68.22
2022-10-03T09:02:26.570Z,67.98
2022-10-03T09:03:34.297Z,70.81
2022-10-03T09:04:29.111Z,68.12
2022-10-03T09:05:26.463Z,69.25
2022-10-03T09:06:26.546Z,70.77
2022-10-03T09:07:26.743Z,66.95
2022-10-03T09:08:26.430Z,69.98
2022-10-03T09:09:26.314Z,70.14
2022-10-03T09:10:26.411Z,71.13
2022-10-03T09:11:26.327Z,71.53
2022-10-03T09:12:26.415Z,70.90
2022-10-03T09:13:26.315Z,70.91
2022-10-03T09:14:26.286Z,70.35
2022-10-03T09:15:26.271Z,69.17
2022-10-03T09:16:27.151Z,71.87
2022-10-03T09:17:26.278Z,70.57
2022-10-03T09:18:26.243Z,69.61
2022-10-03T09:19:26.247Z,65.81
2022-10-03T09:20:26.200Z,71.27
2022-10-03T09:21:26.226Z,70.73
2022-10-03T09:22:26.195Z,68.79
2022-10-03T09:23:26.263Z,69.59
2022-10-03T09:24:26.355Z,69.88
2022-10-03T09:25:26.189Z,70.54
2022-10-03T09:26:26.164Z,67.45
2022-10-03T09:27:26.195Z,69.92
2022-10-03T09:28:26.193Z,69.69
2022-10-03T09:29:26.123Z,68.21
2022-10-03T09:30:26.184Z,68.69
2022-10-03T09:31:26.162Z,70.31
2022-10-03T09:32:26.159Z,68.85
2022-10-03T09:33:26.088Z,69.35
2022-10-03T09:34:26.069Z,69.34
2022-10-03T09:35:26.056Z,71.46
2022-10-03T09:36:26.068Z,70.23
2022-10-03T09:37:26.076Z,68.60
2022-10-03T09:38:26.056Z,69.43
2022-10-03T09:39:26.027Z,69.31
2022-10-03T09:40:25.996Z,67.59
2022-10-03T09:41:26.044Z,69.66
2022-10-03T09:42:26.094Z,71.07
2022-10-03T09:43:25.952Z,70.20
2022-10-03T09:44:26.006Z,67.84
2022-10-03T09:45:25.977Z,70.07
2022-10-03T09:46:25.945Z,67.76
2022-10-03T09:47:26.143Z,70.87
2022-10-03T09:48:25.949Z,70.08
2022-10-03T09:49:25.956Z,71.37
2022-10-03T09:50:25.940Z,68.55
2022-10-03T09:51:25.872Z,69.65
2022-10-03T09:52:26.142Z,70.99
2022-10-03T09:53:25.949Z,70.64
2022-10-03T09:54:25.924Z,69.76
2022-10-03T09:55:25.889Z,69.80
2022-10-03T09:56:25.833Z,71.29
2022-10-03T09:57:26.858Z,69.47
2022-10-03T09:58:25.833Z,69.43
2022-10-03T09:59:25.845Z,70.29
2022-10-03T10:00:25.801Z,70.77
2022-10-03T10:01:25.825Z,71.50
2022-10-03T10:02:25.798Z,72.85
2022-10-03T10:03:25.765Z,71.22
2022-10-03T10:04:43.763Z,71.57
2022-10-03T10:05:26.748Z,70.84
2022-10-03T10:06:25.710Z,71.37
2022-10-03T10:07:25.730Z,68.87
2022-10-03T10:08:25.714Z,71.26
2022-10-03T10:09:25.681Z,69.75
2022-10-03T10:10:25.697Z,70.40
2022-10-03T10:11:25.685Z,71.90
2022-10-03T10:12:25.674Z,71.47
2022-10-03T10:13:26.145Z,69.49
2022-10-03T10:14:25.662Z,71.10
2022-10-03T10:15:25.607Z,72.87
2022-10-03T10:16:25.754Z,70.58
2022-10-03T10:17:25.635Z,71.71
2022-10-03T10:18:25.574Z,70.81
2022-10-03T10:19:25.580Z,71.01
2022-10-03T10:20:25.558Z,70.86
2022-10-03T10:21:25.550Z,71.37
2022-10-03T10:22:25.544Z,72.46
2022-10-03T10:23:25.563Z,70.66
2022-10-03T10:24:25.523Z,71.06
2022-10-03T10:25:26.544Z,70.18
2022-10-03T10:26:29.389Z,71.06
2022-10-03T10:27:26.478Z,66.65
2022-10-03T10:28:25.550Z,69.00
2022-10-03T10:29:25.463Z,68.65
2022-10-03T10:30:25.467Z,69.82
2022-10-03T10:31:25.515Z,69.23
2022-10-03T10:32:25.510Z,69.63
2022-10-03T10:33:25.410Z,72.47
2022-10-03T10:34:25.411Z,72.86
2022-10-03T10:35:26.026Z,71.91
2022-10-03T10:36:26.575Z,71.54
2022-10-03T10:37:25.410Z,71.27
2022-10-03T10:38:25.419Z,70.07
2022-10-03T10:39:25.363Z,70.90
2022-10-03T10:40:25.383Z,72.06
2022-10-03T10:41:25.346Z,73.53
2022-10-03T10:42:25.320Z,72.77
2022-10-03T10:43:25.317Z,72.04
2022-10-03T10:44:25.299Z,71.18
2022-10-03T10:45:25.323Z,72.65
2022-10-03T10:46:25.313Z,71.05
2022-10-03T10:47:25.250Z,71.05
2022-10-03T10:48:26.172Z,69.06
2022-10-03T10:49:25.470Z,70.86
2022-10-03T10:50:25.283Z,68.81
2022-10-03T10:51:25.216Z,71.08
2022-10-03T10:52:25.248Z,69.17
2022-10-03T10:53:25.229Z,71.47
2022-10-03T10:54:25.196Z,71.51
2022-10-03T10:55:25.232Z,69.62
2022-10-03T10:56:25.306Z,70.14
2022-10-03T10:57:25.163Z,70.42
2022-10-03T10:58:25.164Z,69.81
2022-10-03T10:59:25.155Z,70.73
2022-10-03T11:00:25.194Z,71.49
2022-10-03T11:01:25.096Z,71.87
2022-10-03T11:02:25.109Z,71.15
2022-10-03T11:03:25.121Z,72.47
2022-10-03T11:04:25.123Z,71.79
2022-10-03T11:05:25.056Z,70.03
2022-10-03T11:06:25.089Z,70.71
2022-10-03T11:07:25.108Z,70.51
2022-10-03T11:08:25.025Z,71.44
2022-10-03T11:09:25.054Z,71.64
2022-10-03T11:10:25.013Z,70.63
2022-10-03T11:11:25.013Z,71.38
2022-10-03T11:12:24.976Z,70.94
2022-10-03T11:13:25.031Z,70.65
2022-10-03T11:14:25.061Z,70.43
2022-10-03T11:15:24.966Z,71.44
2022-10-03T11:16:25.036Z,71.30
2022-10-03T11:17:24.945Z,70.24
2022-10-03T11:18:24.964Z,71.21
2022-10-03T11:19:24.917Z,72.20
2022-10-03T11:20:24.913Z,72.30
2022-10-03T11:21:24.983Z,73.61
2022-10-03T11:22:24.897Z,69.20
2022-10-03T11:23:25.922Z,71.43
2022-10-03T11:24:24.873Z,71.66
2022-10-03T11:25:24.837Z,71.84
2022-10-03T11:26:24.860Z,68.81
2022-10-03T11:27:24.826Z,70.05
2022-10-03T11:28:27.102Z,73.36
2022-10-03T11:29:25.858Z,71.97
2022-10-03T11:30:24.778Z,70.59
2022-10-03T11:31:24.834Z,72.26
2022-10-03T11:32:24.849Z,71.90
2022-10-03T11:33:24.835Z,70.51
2022-10-03T11:34:24.754Z,71.40
2022-10-03T11:35:24.730Z,70.04
2022-10-03T11:36:24.834Z,71.68
2022-10-03T11:37:24.763Z,71.08
2022-10-03T11:38:24.882Z,70.35
2022-10-03T11:39:24.698Z,70.06
2022-10-03T11:40:24.718Z,70.78
2022-10-03T11:41:24.687Z,70.95
2022-10-03T11:42:24.694Z,71.13
2022-10-03T11:43:25.107Z,71.74
2022-10-03T11:44:24.670Z,70.21
2022-10-03T11:45:24.716Z,71.43
2022-10-03T11:46:24.619Z,71.72
2022-10-03T11:47:24.598Z,71.27
2022-10-03T11:48:24.606Z,70.15
2022-10-03T11:49:24.591Z,69.18
2022-10-03T11:50:24.576Z,72.25
2022-10-03T11:51:24.611Z,68.70
2022-10-03T11:52:24.606Z,71.86
2022-10-03T11:53:24.522Z,69.83
2022-10-03T11:54:32.550Z,71.51
2022-10-03T11:55:26.615Z,72.23
2022-10-03T11:56:24.564Z,70.96
2022-10-03T11:57:24.515Z,70.42
2022-10-03T11:58:24.487Z,71.70
2022-10-03T11:59:26.856Z,72.92
2022-10-03T12:00:25.535Z,70.85
2022-10-03T12:01:24.475Z,71.43
2022-10-03T12:02:24.509Z,70.14
2022-10-03T12:03:24.561Z,71.45
2022-10-03T12:04:24.444Z,69.67
2022-10-03T12:05:24.467Z,71.39
2022-10-03T12:06:24.407Z,69.40
2022-10-03T12:07:24.407Z,70.86
2022-10-03T12:08:24.460Z,72.03
2022-10-03T12:09:24.409Z,71.41
2022-10-03T12:10:24.387Z,72.61
2022-10-03T12:11:25.236Z,71.89
2022-10-03T12:12:24.381Z,71.38
2022-10-03T12:13:24.349Z,71.15
2022-10-03T12:14:24.337Z,70.68
2022-10-03T12:15:24.313Z,69.35
2022-10-03T12:16:24.355Z,70.19
2022-10-03T12:17:24.291Z,70.62
2022-10-03T12:18:24.292Z,71.48
2022-10-03T12:19:24.280Z,71.19
2022-10-03T12:20:24.283Z,68.84
2022-10-03T12:21:24.279Z,69.53
2022-10-03T12:22:24.249Z,70.04
2022-10-03T12:23:24.235Z,69.37
2022-10-03T12:24:24.236Z,70.93
2022-10-03T12:25:24.348Z,72.15
2022-10-03T12:26:24.246Z,70.11
2022-10-03T12:27:24.318Z,69.26
2022-10-03T12:28:24.263Z,72.29
2022-10-03T12:29:24.173Z,71.41
2022-10-03T12:30:24.247Z,69.12
2022-10-03T12:31:24.293Z,72.12
2022-10-03T12:32:24.239Z,69.75
2022-10-03T12:33:24.113Z,69.87
2022-10-03T12:34:24.113Z,72.29
2022-10-03T12:35:24.149Z,73.24
2022-10-03T12:36:24.106Z,72.89
2022-10-03T12:37:24.153Z,71.78
2022-10-03T12:38:24.182Z,72.83
2022-10-03T12:39:24.065Z,72.61
2022-10-03T12:40:24.077Z,71.52
2022-10-03T12:41:24.085Z,72.57
2022-10-03T12:42:24.724Z,72.96
2022-10-03T12:43:24.118Z,70.25
2022-10-03T12:44:24.009Z,70.70
2022-10-03T12:45:23.997Z,73.38
2022-10-03T12:46:24.020Z,72.33
2022-10-03T12:47:37.561Z,71.72
2022-10-03T12:48:25.971Z,71.41
2022-10-03T12:49:23.972Z,70.97
2022-10-03T12:50:23.921Z,71.50
2022-10-03T12:51:23.917Z,71.32
2022-10-03T12:52:23.912Z,70.33